CheckWX is a tool to help pilots better visualize weather data.  It is not intended as a substitute for an official pre-flight weather briefing.

19:08:43 UTC

KAFO METAR
Afton Municipal Airport
Afton, Wyoming, USA
Current

34 mins ago

KAFO 271835Z AUTO 29010KT 10SM OVC019 M01/M05 A3015 RMK AO2
Observed
Jan-27 @ 18:35 UTC
Wind
  • 290° at 10 KTS
Visibility
10 SM
Flight Rules
MVFR
Cloud Levels
  • Overcast at 1,900' AGL
Temperature
-1°C / 30°F
Dewpoint
-5°C / 23°F
Humidity
75%
Altimeter
30.15" Hg
Pressure
1021.02 hPa
Previous

54 mins ago

KAFO 271815Z AUTO 35006G20KT 10SM OVC019 M01/M05 A3015 RMK AO2
Observed
Jan-27 @ 18:15 UTC
Wind
  • 350° at 6 KTS
  • Gusting to 20 KTS
Visibility
10 SM
Flight Rules
MVFR
Cloud Levels
  • Overcast at 1,900' AGL
Temperature
-1°C / 30°F
Dewpoint
-5°C / 23°F
Humidity
75%
Altimeter
30.15" Hg
Pressure
1021.02 hPa
Previous

1 hour ago

KAFO 271755Z AUTO 36007KT 10SM OVC021 M01/M05 A3014 RMK AO2
Observed
Jan-27 @ 17:55 UTC
Wind
  • 360° at 7 KTS
Visibility
10 SM
Flight Rules
MVFR
Cloud Levels
  • Overcast at 2,100' AGL
Temperature
-1°C / 30°F
Dewpoint
-5°C / 23°F
Humidity
75%
Altimeter
30.14" Hg
Pressure
1020.62 hPa